createdAt,value
2022-08-09T00:00:05.900Z,73.23
2022-08-09T00:02:42.866Z,73.10
2022-08-09T00:06:19.833Z,72.08
2022-08-09T00:08:09.943Z,73.40
2022-08-09T00:10:39.070Z,72.57
2022-08-09T00:13:16.729Z,72.55
2022-08-09T00:15:58.945Z,72.62
2022-08-09T00:18:28.955Z,72.22
2022-08-09T00:20:56.269Z,72.32
2022-08-09T00:23:54.724Z,72.05
2022-08-09T00:26:12.065Z,71.61
2022-08-09T00:28:40.589Z,71.73
2022-08-09T00:31:57.173Z,72.29
2022-08-09T00:33:55.623Z,72.66
2022-08-09T00:36:29.767Z,72.33
2022-08-09T00:38:58.620Z,72.80
2022-08-09T00:44:14.426Z,72.31
2022-08-09T00:44:26.076Z,71.77
2022-08-09T00:47:01.639Z,72.97
2022-08-09T00:49:36.563Z,72.50
2022-08-09T00:52:15.980Z,73.17
2022-08-09T00:54:46.112Z,72.72
2022-08-09T00:57:13.833Z,73.53
2022-08-09T00:59:52.722Z,73.91
2022-08-09T01:02:27.413Z,73.22
2022-08-09T01:05:03.485Z,73.75
2022-08-09T01:08:01.025Z,74.15
2022-08-09T01:10:45.169Z,73.89
2022-08-09T01:13:53.369Z,73.59
2022-08-09T01:16:32.102Z,73.95
2022-08-09T01:19:04.654Z,73.26
2022-08-09T01:21:41.052Z,74.28
2022-08-09T01:24:32.223Z,74.46
2022-08-09T01:27:05.013Z,75.02
2022-08-09T01:29:55.558Z,75.38
2022-08-09T01:32:34.105Z,75.78
2022-08-09T01:35:06.845Z,75.09
2022-08-09T01:38:05.751Z,75.50
2022-08-09T01:40:28.382Z,75.76
2022-08-09T01:42:58.254Z,76.19
2022-08-09T01:45:27.930Z,75.83
2022-08-09T01:47:58.994Z,75.25
2022-08-09T01:50:36.584Z,75.79
2022-08-09T01:53:19.212Z,75.22
2022-08-09T01:55:48.021Z,75.17
2022-08-09T01:58:16.611Z,75.15
2022-08-09T02:00:46.074Z,74.93
2022-08-09T02:03:16.761Z,74.62
2022-08-09T02:06:03.916Z,74.90
2022-08-09T02:08:56.920Z,74.98
2022-08-09T02:11:40.240Z,75.34
2022-08-09T02:14:15.837Z,75.47
2022-08-09T02:17:14.415Z,76.32
2022-08-09T02:19:43.659Z,76.68
2022-08-09T02:22:35.792Z,75.83
2022-08-09T02:25:07.915Z,76.06
2022-08-09T02:27:43.230Z,75.95
2022-08-09T02:30:29.406Z,76.01
2022-08-09T02:32:57.929Z,75.08
2022-08-09T02:36:01.688Z,75.49
2022-08-09T02:38:28.475Z,75.14
2022-08-09T02:41:07.834Z,75.58
2022-08-09T02:43:42.591Z,75.47
2022-08-09T02:46:27.414Z,76.64
2022-08-09T02:49:01.188Z,76.02
2022-08-09T02:51:39.970Z,76.36
2022-08-09T02:54:10.610Z,75.66
2022-08-09T02:56:40.331Z,76.49
2022-08-09T02:59:14.856Z,76.74
2022-08-09T03:02:06.075Z,77.08
2022-08-09T03:04:37.331Z,76.93
2022-08-09T03:07:12.286Z,77.20
2022-08-09T03:09:43.271Z,77.83
2022-08-09T03:12:13.572Z,77.75
2022-08-09T03:14:42.830Z,78.03
2022-08-09T03:17:16.467Z,78.09
2022-08-09T03:19:57.775Z,77.18
2022-08-09T03:22:30.478Z,77.67
2022-08-09T03:25:58.693Z,77.58
2022-08-09T03:28:00.001Z,78.28
2022-08-09T03:30:29.917Z,77.81
2022-08-09T03:33:17.753Z,77.69
2022-08-09T03:36:15.924Z,78.07
2022-08-09T03:38:42.132Z,77.92
2022-08-09T03:41:15.321Z,77.70
2022-08-09T03:44:03.135Z,78.42
2022-08-09T03:46:31.321Z,78.19
2022-08-09T03:49:03.710Z,78.43
2022-08-09T03:51:56.250Z,77.51
2022-08-09T03:54:29.316Z,77.13
2022-08-09T03:57:00.792Z,77.35
2022-08-09T03:59:53.777Z,77.59
2022-08-09T04:02:15.371Z,77.61
2022-08-09T04:04:53.704Z,77.62
2022-08-09T04:07:20.575Z,77.47
2022-08-09T04:09:50.177Z,78.35
2022-08-09T04:12:33.300Z,78.14
2022-08-09T04:15:01.598Z,78.43
2022-08-09T04:17:29.583Z,78.33
2022-08-09T04:19:56.931Z,78.63
2022-08-09T04:22:24.978Z,78.86
2022-08-09T04:24:54.835Z,78.81
2022-08-09T04:27:22.137Z,78.39
2022-08-09T04:29:50.496Z,75.80
2022-08-09T04:32:31.331Z,71.81
2022-08-09T04:35:01.276Z,70.17
2022-08-09T04:37:45.976Z,70.42
2022-08-09T04:40:29.055Z,67.97
2022-08-09T04:43:01.687Z,68.74
2022-08-09T04:45:30.766Z,68.15
2022-08-09T04:47:59.514Z,67.29
2022-08-09T04:50:31.991Z,66.52
2022-08-09T04:53:05.594Z,67.12
2022-08-09T04:55:41.190Z,66.84
2022-08-09T04:58:28.961Z,66.69
2022-08-09T05:00:57.541Z,65.46
2022-08-09T05:03:41.085Z,66.41
2022-08-09T05:06:21.758Z,65.08
2022-08-09T05:08:59.846Z,64.96
2022-08-09T05:11:32.140Z,64.86
2022-08-09T05:13:59.894Z,64.29
2022-08-09T05:16:31.771Z,63.06
2022-08-09T05:19:00.314Z,63.94
2022-08-09T05:21:29.664Z,63.78
2022-08-09T05:24:01.878Z,63.52
2022-08-09T05:26:36.913Z,62.96
2022-08-09T05:29:17.753Z,62.73
2022-08-09T05:31:56.918Z,63.14
2022-08-09T05:34:31.030Z,62.74
2022-08-09T05:37:06.059Z,62.45
2022-08-09T05:39:43.333Z,62.34
2022-08-09T05:42:17.566Z,63.06
2022-08-09T05:44:50.957Z,61.40
2022-08-09T05:47:23.244Z,60.88
2022-08-09T05:50:26.745Z,60.85
2022-08-09T05:52:42.647Z,60.72
2022-08-09T05:55:20.357Z,60.87
2022-08-09T05:57:51.191Z,60.92
2022-08-09T06:00:30.553Z,60.42
2022-08-09T06:03:01.503Z,60.32
2022-08-09T06:05:57.344Z,60.07
2022-08-09T06:08:24.617Z,60.72
2022-08-09T06:10:56.218Z,60.06
2022-08-09T06:13:25.496Z,59.93
2022-08-09T06:15:55.229Z,60.96
2022-08-09T06:18:25.082Z,59.47
2022-08-09T06:20:58.609Z,60.61
2022-08-09T06:23:55.592Z,59.20
2022-08-09T06:26:20.398Z,59.36
2022-08-09T06:28:59.416Z,60.09
2022-08-09T06:31:31.290Z,58.98
2022-08-09T06:34:06.519Z,59.55
2022-08-09T06:36:34.093Z,59.49
2022-08-09T06:39:02.371Z,58.64
2022-08-09T06:42:06.382Z,58.47
2022-08-09T06:44:24.538Z,58.60
2022-08-09T06:46:55.226Z,58.18
2022-08-09T06:49:44.930Z,58.29
2022-08-09T06:52:12.086Z,58.04
2022-08-09T06:54:42.984Z,57.69
2022-08-09T06:57:10.539Z,57.07
2022-08-09T07:00:49.913Z,56.55
2022-08-09T07:02:29.911Z,56.93
2022-08-09T07:04:57.969Z,56.52
2022-08-09T07:08:00.389Z,56.29
2022-08-09T07:10:22.559Z,56.43
2022-08-09T07:12:57.637Z,57.00
2022-08-09T07:16:35.205Z,56.35
2022-08-09T07:18:11.918Z,56.37
2022-08-09T07:20:43.480Z,56.96
2022-08-09T07:23:18.826Z,56.62
2022-08-09T07:25:48.120Z,56.55
2022-08-09T07:28:28.082Z,56.76
2022-08-09T07:30:55.637Z,58.19
2022-08-09T07:33:22.551Z,55.99
2022-08-09T07:35:54.306Z,56.31
2022-08-09T07:38:23.340Z,55.92
2022-08-09T07:41:00.872Z,56.13
2022-08-09T07:43:41.137Z,56.85
2022-08-09T07:46:19.392Z,57.59
2022-08-09T07:48:46.935Z,56.36
2022-08-09T07:52:06.259Z,55.41
2022-08-09T07:54:12.774Z,57.88
2022-08-09T07:56:45.082Z,56.40
2022-08-09T07:59:34.218Z,54.88
2022-08-09T08:02:08.993Z,55.75
2022-08-09T08:04:36.185Z,55.64
2022-08-09T08:07:15.385Z,55.93
2022-08-09T08:10:07.497Z,54.99
2022-08-09T08:12:43.587Z,55.69
2022-08-09T08:15:13.854Z,55.55
2022-08-09T08:17:53.942Z,54.48
2022-08-09T08:20:30.584Z,55.15
2022-08-09T08:23:06.277Z,54.91
2022-08-09T08:25:44.530Z,54.11
2022-08-09T08:28:15.092Z,55.00
2022-08-09T08:30:44.157Z,54.89
2022-08-09T08:33:24.338Z,53.86
2022-08-09T08:35:59.043Z,54.56
2022-08-09T08:38:27.979Z,54.24
2022-08-09T08:40:55.966Z,54.30
2022-08-09T08:43:23.811Z,54.35
2022-08-09T08:46:04.320Z,53.71
2022-08-09T08:48:51.330Z,52.69
2022-08-09T08:51:22.559Z,53.18
2022-08-09T08:54:02.678Z,52.93
2022-08-09T08:56:37.756Z,53.30
2022-08-09T08:59:19.088Z,52.56
2022-08-09T09:01:53.278Z,52.64
2022-08-09T09:04:27.745Z,51.63
2022-08-09T09:06:57.469Z,51.61
2022-08-09T09:09:41.133Z,51.01
2022-08-09T09:12:17.073Z,52.29
2022-08-09T09:14:45.323Z,51.46
2022-08-09T09:17:15.534Z,50.18
2022-08-09T09:19:44.036Z,49.66
2022-08-09T09:22:13.984Z,50.65
2022-08-09T09:24:49.205Z,50.59
2022-08-09T09:28:06.379Z,50.56
2022-08-09T09:30:26.152Z,48.93
2022-08-09T09:33:16.983Z,49.55
2022-08-09T09:36:00.887Z,48.39
2022-08-09T09:38:43.678Z,48.89
2022-08-09T09:41:23.258Z,49.01
2022-08-09T09:44:10.780Z,50.13
2022-08-09T09:46:42.062Z,48.76
2022-08-09T09:49:12.448Z,49.13
2022-08-09T09:51:40.849Z,48.42
2022-08-09T09:54:20.462Z,49.12
2022-08-09T09:56:53.228Z,48.42
2022-08-09T09:59:36.739Z,48.16
2022-08-09T10:02:03.707Z,48.20
2022-08-09T10:04:31.441Z,47.51
2022-08-09T10:07:03.338Z,48.27
2022-08-09T10:09:54.972Z,46.82
2022-08-09T10:12:28.076Z,47.06
2022-08-09T10:15:17.218Z,47.68
2022-08-09T10:17:56.178Z,46.36
2022-08-09T10:20:32.851Z,46.89
2022-08-09T10:23:21.220Z,46.24
2022-08-09T10:26:06.766Z,46.00
2022-08-09T10:28:39.883Z,45.74
2022-08-09T10:32:27.434Z,45.75
2022-08-09T10:34:10.209Z,45.66
2022-08-09T10:36:47.746Z,46.27
2022-08-09T10:39:19.417Z,45.48
2022-08-09T10:41:48.041Z,44.51
2022-08-09T10:44:21.588Z,45.35
2022-08-09T10:47:20.582Z,44.46
2022-08-09T10:50:06.958Z,43.33
2022-08-09T10:52:58.143Z,44.08
2022-08-09T10:55:35.692Z,43.16
2022-08-09T10:58:37.351Z,44.02
2022-08-09T11:03:11.027Z,43.36
2022-08-09T11:04:19.450Z,43.91
2022-08-09T11:07:01.512Z,43.34
2022-08-09T11:09:47.846Z,42.44
2022-08-09T11:12:22.133Z,42.75
2022-08-09T11:14:59.125Z,41.55
2022-08-09T11:17:25.894Z,42.09
2022-08-09T11:20:23.111Z,40.32
2022-08-09T11:22:55.628Z,40.08
2022-08-09T11:25:44.833Z,40.57
2022-08-09T11:28:38.839Z,40.64
2022-08-09T11:31:43.068Z,40.38
2022-08-09T11:34:19.829Z,39.12
2022-08-09T11:36:48.158Z,40.55
2022-08-09T11:39:15.664Z,41.40
2022-08-09T11:41:43.697Z,38.51
2022-08-09T11:44:13.732Z,37.62
2022-08-09T11:46:52.263Z,38.46
2022-08-09T11:49:27.877Z,36.78
2022-08-09T11:53:02.474Z,37.27
2022-08-09T11:55:34.897Z,37.11
2022-08-09T11:58:19.688Z,36.95
2022-08-09T12:00:59.512Z,35.84
2022-08-09T12:03:55.859Z,35.90
2022-08-09T12:06:26.525Z,35.18
2022-08-09T12:08:56.218Z,35.07
2022-08-09T12:11:26.459Z,34.46
2022-08-09T12:14:10.757Z,35.42
2022-08-09T12:16:47.284Z,35.74
2022-08-09T12:19:29.369Z,34.20
2022-08-09T12:22:02.942Z,35.32
2022-08-09T12:24:30.339Z,33.54
2022-08-09T12:29:15.214Z,33.75
2022-08-09T12:30:00.159Z,33.47
2022-08-09T12:32:31.585Z,33.95
2022-08-09T12:35:03.065Z,35.25
2022-08-09T12:37:33.345Z,34.98
2022-08-09T12:40:12.120Z,34.15
2022-08-09T12:42:44.262Z,34.08
2022-08-09T12:45:34.356Z,34.26
2022-08-09T12:47:58.982Z,34.01
2022-08-09T12:50:25.975Z,33.92
2022-08-09T12:53:08.974Z,33.60
2022-08-09T12:56:14.627Z,33.86
2022-08-09T12:58:28.564Z,34.93
2022-08-09T13:00:56.565Z,34.57
2022-08-09T13:03:58.482Z,34.62
2022-08-09T13:06:51.189Z,33.68
2022-08-09T13:09:26.391Z,33.46
2022-08-09T13:12:04.991Z,32.79
2022-08-09T13:14:41.191Z,33.99
2022-08-09T13:17:44.221Z,33.19
2022-08-09T13:20:08.775Z,33.12
2022-08-09T13:23:01.834Z,33.56
2022-08-09T13:25:54.445Z,33.08
2022-08-09T13:28:33.902Z,33.12
2022-08-09T13:32:15.122Z,33.07
2022-08-09T13:33:54.290Z,33.21
2022-08-09T13:36:38.868Z,32.95
2022-08-09T13:41:54.896Z,33.98
2022-08-09T13:42:12.640Z,33.63
2022-08-09T13:44:44.179Z,33.00
2022-08-09T13:47:29.092Z,33.17
2022-08-09T13:50:03.467Z,33.10
2022-08-09T13:52:40.690Z,32.82
2022-08-09T13:55:13.644Z,33.48
2022-08-09T13:57:45.061Z,32.30
2022-08-09T14:00:20.341Z,33.18
2022-08-09T14:03:03.511Z,32.64
2022-08-09T14:05:58.173Z,33.14
2022-08-09T14:08:27.133Z,31.60
2022-08-09T14:10:55.649Z,31.07
2022-08-09T14:13:28.198Z,30.69
2022-08-09T14:16:14.464Z,31.41
2022-08-09T14:18:45.916Z,31.39
2022-08-09T14:21:23.713Z,30.39
2022-08-09T14:23:54.656Z,31.23
2022-08-09T14:26:33.539Z,31.75
2022-08-09T14:29:08.094Z,32.18
2022-08-09T14:31:53.609Z,31.66
2022-08-09T14:34:31.354Z,31.90
2022-08-09T14:37:01.526Z,31.26
2022-08-09T14:39:46.467Z,31.38
2022-08-09T14:42:30.878Z,31.25
2022-08-09T14:47:01.154Z,30.71
2022-08-09T14:47:58.575Z,31.26
2022-08-09T14:50:34.067Z,31.42
2022-08-09T14:53:03.124Z,31.01
2022-08-09T14:55:33.562Z,31.38
2022-08-09T14:58:05.238Z,31.10
2022-08-09T15:00:36.385Z,31.30
2022-08-09T15:03:07.596Z,31.42
2022-08-09T15:05:37.170Z,30.38
2022-08-09T15:08:05.076Z,30.03
2022-08-09T15:10:32.813Z,29.98
2022-08-09T15:13:00.330Z,30.06
2022-08-09T15:15:28.900Z,29.97
2022-08-09T15:17:56.916Z,30.32
2022-08-09T15:21:57.455Z,30.04
2022-08-09T15:24:00.839Z,29.88
2022-08-09T15:25:59.781Z,29.64
2022-08-09T15:28:27.816Z,30.10
2022-08-09T15:31:09.942Z,30.78
2022-08-09T15:34:17.633Z,30.60
2022-08-09T15:36:29.115Z,30.34
2022-08-09T15:39:00.359Z,29.96
2022-08-09T15:41:32.095Z,29.87
2022-08-09T15:44:03.019Z,29.85
2022-08-09T15:46:32.915Z,30.39
2022-08-09T15:49:20.867Z,30.91
2022-08-09T15:52:03.245Z,30.79
2022-08-09T15:54:44.606Z,30.77
2022-08-09T15:57:35.002Z,30.79
2022-08-09T16:00:09.334Z,30.44
2022-08-09T16:02:42.033Z,30.59
2022-08-09T16:05:09.351Z,30.79
2022-08-09T16:07:39.057Z,30.94
2022-08-09T16:10:11.211Z,31.84
2022-08-09T16:12:50.224Z,31.55
2022-08-09T16:16:11.625Z,31.45
2022-08-09T16:18:05.229Z,31.00
2022-08-09T16:20:36.383Z,31.92
2022-08-09T16:23:05.392Z,31.84
2022-08-09T16:25:36.964Z,31.16
2022-08-09T16:28:06.607Z,31.02
2022-08-09T16:30:33.535Z,31.37
2022-08-09T16:33:01.495Z,31.03
2022-08-09T16:35:56.411Z,31.62
2022-08-09T16:38:17.838Z,31.79
2022-08-09T16:40:44.961Z,30.72
2022-08-09T16:43:12.555Z,30.65
2022-08-09T16:45:44.462Z,31.01
2022-08-09T16:48:42.616Z,29.91
2022-08-09T16:51:07.390Z,30.81
2022-08-09T16:53:35.949Z,30.12
2022-08-09T16:56:10.185Z,30.01
2022-08-09T16:58:39.913Z,30.23
2022-08-09T17:01:10.041Z,30.66
2022-08-09T17:03:37.726Z,30.85
2022-08-09T17:06:28.159Z,31.01
2022-08-09T17:09:01.467Z,31.15
2022-08-09T17:11:40.703Z,31.28
2022-08-09T17:14:25.642Z,31.92
2022-08-09T17:17:01.396Z,32.09
2022-08-09T17:19:46.695Z,32.20
2022-08-09T17:22:24.729Z,32.16
2022-08-09T17:25:03.008Z,32.22
2022-08-09T17:27:35.024Z,31.93
2022-08-09T17:30:12.907Z,32.26
2022-08-09T17:32:44.240Z,32.02
2022-08-09T17:35:14.440Z,32.54
2022-08-09T17:38:14.411Z,32.18
2022-08-09T17:40:30.169Z,32.84
2022-08-09T17:43:32.412Z,32.89
2022-08-09T17:46:04.284Z,32.91
2022-08-09T17:48:34.452Z,33.03
2022-08-09T17:51:01.768Z,32.92
2022-08-09T17:53:42.856Z,33.16
2022-08-09T17:56:10.550Z,33.33
2022-08-09T17:58:37.413Z,33.70
2022-08-09T18:01:04.301Z,33.63
2022-08-09T18:03:31.867Z,33.51
2022-08-09T18:06:00.922Z,33.62
2022-08-09T18:08:28.700Z,33.86
2022-08-09T18:11:01.982Z,34.04
2022-08-09T18:13:40.067Z,34.15
2022-08-09T18:16:29.105Z,34.13
2022-08-09T18:19:04.082Z,34.16
2022-08-09T18:21:47.159Z,34.93
2022-08-09T18:24:17.303Z,34.70
2022-08-09T18:26:46.550Z,34.60
2022-08-09T18:30:39.000Z,34.72
2022-08-09T18:32:04.915Z,34.90
2022-08-09T18:34:32.242Z,34.77
2022-08-09T18:36:59.311Z,35.36
2022-08-09T18:39:32.483Z,36.06
2022-08-09T18:42:02.521Z,35.61
2022-08-09T18:44:29.914Z,36.24
2022-08-09T18:47:08.178Z,36.50
2022-08-09T18:49:43.594Z,36.64
2022-08-09T18:52:18.606Z,36.55
2022-08-09T18:54:57.890Z,36.76
2022-08-09T18:57:42.718Z,36.84
2022-08-09T19:00:16.711Z,36.80
2022-08-09T19:02:50.956Z,36.92
2022-08-09T19:05:41.388Z,36.77
2022-08-09T19:08:10.735Z,36.79
2022-08-09T19:10:41.324Z,37.08
2022-08-09T19:13:19.841Z,37.50
2022-08-09T19:15:55.788Z,37.47
2022-08-09T19:18:34.262Z,37.29
2022-08-09T19:21:09.270Z,37.73
2022-08-09T19:24:35.890Z,37.89
2022-08-09T19:26:31.271Z,38.14
2022-08-09T19:29:01.486Z,38.16
2022-08-09T19:31:43.707Z,38.65
2022-08-09T19:34:21.436Z,38.38
2022-08-09T19:36:52.436Z,38.46
2022-08-09T19:39:20.503Z,38.49
2022-08-09T19:41:48.630Z,38.40
2022-08-09T19:44:20.727Z,38.97
2022-08-09T19:46:50.851Z,39.39
2022-08-09T19:50:06.930Z,39.10
2022-08-09T19:52:08.651Z,39.15
2022-08-09T19:54:35.891Z,39.90
2022-08-09T19:57:03.672Z,39.68
2022-08-09T19:59:58.858Z,40.52
2022-08-09T20:04:07.616Z,40.25
2022-08-09T20:05:10.134Z,39.98
2022-08-09T20:07:58.916Z,40.61
2022-08-09T20:10:36.454Z,41.21
2022-08-09T20:13:06.233Z,40.90
2022-08-09T20:16:33.520Z,41.02
2022-08-09T20:18:22.436Z,41.31
2022-08-09T20:20:51.455Z,41.25
2022-08-09T20:23:23.805Z,41.64
2022-08-09T20:25:52.861Z,41.80
2022-08-09T20:28:27.542Z,41.45
2022-08-09T20:31:02.701Z,41.60
2022-08-09T20:33:41.038Z,42.20
2022-08-09T20:36:12.756Z,41.85
2022-08-09T20:39:28.696Z,42.41
2022-08-09T20:41:35.474Z,41.81
2022-08-09T20:44:10.093Z,42.15
2022-08-09T20:46:44.595Z,43.10
2022-08-09T20:49:13.878Z,42.72
2022-08-09T20:51:42.728Z,43.56
2022-08-09T20:54:16.525Z,43.00
2022-08-09T20:56:49.482Z,43.20
2022-08-09T21:00:20.635Z,43.49
2022-08-09T21:02:07.573Z,43.13
2022-08-09T21:05:53.118Z,44.10
2022-08-09T21:07:21.402Z,43.73
2022-08-09T21:09:58.327Z,44.12
2022-08-09T21:15:14.965Z,44.19
2022-08-09T21:18:20.758Z,44.54
2022-08-09T21:20:30.664Z,44.68
2022-08-09T21:22:59.648Z,44.31
2022-08-09T21:25:38.101Z,44.72
2022-08-09T21:28:07.575Z,44.60
2022-08-09T21:30:40.747Z,44.43
2022-08-09T21:33:08.835Z,44.48
2022-08-09T21:35:40.635Z,44.87
2022-08-09T21:38:21.006Z,44.87
2022-08-09T21:40:57.949Z,45.27
2022-08-09T21:43:56.180Z,45.00
2022-08-09T21:46:13.685Z,45.15
2022-08-09T21:48:42.606Z,45.44
2022-08-09T21:51:18.080Z,45.11
2022-08-09T21:53:54.858Z,45.27
2022-08-09T21:56:33.779Z,45.24
2022-08-09T21:59:09.025Z,45.18
2022-08-09T22:01:58.864Z,45.27
2022-08-09T22:04:22.706Z,45.29
2022-08-09T22:07:09.583Z,45.57
2022-08-09T22:09:39.113Z,45.68
2022-08-09T22:12:18.770Z,45.96
2022-08-09T22:14:51.637Z,46.46
2022-08-09T22:17:18.407Z,46.34
2022-08-09T22:19:58.379Z,46.02
2022-08-09T22:22:30.512Z,46.39
2022-08-09T22:26:06.492Z,46.59
2022-08-09T22:27:48.068Z,46.31
2022-08-09T22:30:15.790Z,46.34
2022-08-09T22:32:53.376Z,46.79
2022-08-09T22:36:01.002Z,46.93
2022-08-09T22:38:07.997Z,46.64
2022-08-09T22:40:36.022Z,47.01
2022-08-09T22:43:16.096Z,47.12
2022-08-09T22:48:15.885Z,47.05
2022-08-09T22:48:37.031Z,47.03
2022-08-09T22:51:10.761Z,47.34
2022-08-09T22:54:02.431Z,47.38
2022-08-09T22:56:33.876Z,47.68
2022-08-09T22:59:05.777Z,47.59
2022-08-09T23:01:50.579Z,47.70
2022-08-09T23:04:17.552Z,47.75
2022-08-09T23:06:44.711Z,47.85
2022-08-09T23:09:12.103Z,47.81
2022-08-09T23:11:40.322Z,48.24
2022-08-09T23:14:10.296Z,47.75
2022-08-09T23:16:45.272Z,48.24
2022-08-09T23:19:12.192Z,48.49
2022-08-09T23:21:39.670Z,48.28
2022-08-09T23:24:07.649Z,48.79
2022-08-09T23:26:36.423Z,49.00
2022-08-09T23:29:05.224Z,48.59
2022-08-09T23:31:32.124Z,49.21
2022-08-09T23:33:58.949Z,48.84
2022-08-09T23:36:27.019Z,48.79
2022-08-09T23:38:53.936Z,48.90
2022-08-09T23:41:27.630Z,49.17
2022-08-09T23:43:57.628Z,49.42
2022-08-09T23:46:24.531Z,49.51
2022-08-09T23:48:51.339Z,49.23
2022-08-09T23:51:18.208Z,49.10
2022-08-09T23:53:44.949Z,49.65
2022-08-09T23:56:14.346Z,49.37
2022-08-09T23:58:41.427Z,49.52
